createdAt,value
2022-11-23T00:00:06.809Z,14.82
2022-11-23T00:02:33.565Z,12.57
2022-11-23T00:05:00.228Z,14.35
2022-11-23T00:07:26.947Z,14.05
2022-11-23T00:09:53.628Z,12.70
2022-11-23T00:12:20.358Z,12.68
2022-11-23T00:14:46.938Z,12.07
2022-11-23T00:17:13.534Z,12.15
2022-11-23T00:19:40.107Z,11.48
2022-11-23T00:22:06.932Z,10.95
2022-11-23T00:24:33.603Z,11.73
2022-11-23T00:27:00.242Z,11.15
2022-11-23T00:29:27.441Z,11.35
2022-11-23T00:31:54.072Z,11.27
2022-11-23T00:34:20.641Z,10.32
2022-11-23T00:36:47.248Z,9.95
2022-11-23T00:39:13.855Z,9.63
2022-11-23T00:41:40.533Z,10.60
2022-11-23T00:44:07.804Z,8.85
2022-11-23T00:46:34.375Z,9.27
2022-11-23T00:49:01.683Z,8.75
2022-11-23T00:51:33.400Z,8.05
2022-11-23T00:54:00.773Z,8.15
2022-11-23T00:56:28.458Z,8.10
2022-11-23T00:58:57.137Z,7.60
2022-11-23T01:01:26.266Z,7.65
2022-11-23T01:03:55.501Z,7.40
2022-11-23T01:06:24.922Z,7.13
2022-11-23T01:08:56.979Z,7.53
2022-11-23T01:11:25.891Z,6.57
2022-11-23T01:13:52.852Z,7.70
2022-11-23T01:16:25.303Z,6.78
2022-11-23T01:18:53.446Z,5.93
2022-11-23T01:21:20.102Z,6.93
2022-11-23T01:23:46.802Z,6.28
2022-11-23T01:26:13.556Z,7.03
2022-11-23T01:28:40.815Z,5.15
2022-11-23T01:31:10.876Z,7.90
2022-11-23T01:33:38.254Z,5.28
2022-11-23T01:36:13.057Z,6.28
2022-11-23T01:38:40.946Z,7.13
2022-11-23T01:41:10.880Z,5.72
2022-11-23T01:43:37.713Z,5.93
2022-11-23T01:46:05.635Z,6.65
2022-11-23T01:48:44.075Z,6.10
2022-11-23T01:51:15.090Z,6.22
2022-11-23T01:53:42.876Z,6.50
2022-11-23T01:56:14.205Z,6.35
2022-11-23T01:58:44.905Z,7.60
2022-11-23T02:01:12.149Z,7.45
2022-11-23T02:03:40.378Z,7.68
2022-11-23T02:06:13.376Z,6.68
2022-11-23T02:08:40.042Z,6.90
2022-11-23T02:11:06.906Z,7.13
2022-11-23T02:13:33.641Z,7.60
2022-11-23T02:16:00.364Z,7.20
2022-11-23T02:18:30.378Z,8.38
2022-11-23T02:20:59.550Z,8.73
2022-11-23T02:23:44.938Z,8.50
2022-11-23T02:26:16.534Z,7.50
2022-11-23T02:28:50.404Z,8.52
2022-11-23T02:31:16.999Z,7.97
2022-11-23T02:33:43.914Z,8.52
2022-11-23T02:36:34.804Z,8.10
2022-11-23T02:39:06.653Z,8.73
2022-11-23T02:41:45.933Z,8.07
2022-11-23T02:44:31.094Z,9.13
2022-11-23T02:46:58.469Z,8.93
2022-11-23T02:49:25.307Z,9.48
2022-11-23T02:51:52.719Z,8.10
2022-11-23T02:54:20.075Z,8.57
2022-11-23T02:56:46.757Z,9.00
2022-11-23T02:59:13.410Z,9.02
2022-11-23T03:01:40.391Z,7.57
2022-11-23T03:04:07.653Z,7.95
2022-11-23T03:06:34.375Z,7.97
2022-11-23T03:09:01.015Z,7.72
2022-11-23T03:11:27.788Z,7.70
2022-11-23T03:13:54.410Z,7.05
2022-11-23T03:16:21.357Z,6.22
2022-11-23T03:18:47.942Z,5.80
2022-11-23T03:21:14.828Z,5.68
2022-11-23T03:23:41.444Z,6.70
2022-11-23T03:26:12.717Z,5.90
2022-11-23T03:28:40.127Z,6.20
2022-11-23T03:31:06.812Z,5.80
2022-11-23T03:33:33.837Z,5.90
2022-11-23T03:36:00.900Z,5.30
2022-11-23T03:38:27.528Z,4.95
2022-11-23T03:40:54.323Z,4.80
2022-11-23T03:43:21.461Z,5.05
2022-11-23T03:45:48.705Z,4.93
2022-11-23T03:48:16.043Z,5.32
2022-11-23T03:50:43.812Z,5.65
2022-11-23T03:53:10.645Z,5.47
2022-11-23T03:55:37.393Z,6.07
2022-11-23T03:58:04.117Z,5.05
2022-11-23T04:00:31.318Z,5.18
2022-11-23T04:02:57.965Z,5.95
2022-11-23T04:05:24.794Z,5.38
2022-11-23T04:07:51.542Z,5.20
2022-11-23T04:10:19.466Z,6.57
2022-11-23T04:12:46.237Z,6.50
2022-11-23T04:15:12.828Z,5.93
2022-11-23T04:17:39.467Z,5.38
2022-11-23T04:20:06.870Z,5.90
2022-11-23T04:22:33.692Z,5.88
2022-11-23T04:25:00.298Z,5.78
2022-11-23T04:27:26.966Z,5.60
2022-11-23T04:29:53.620Z,5.60
2022-11-23T04:32:20.430Z,5.28
2022-11-23T04:34:47.047Z,5.32
2022-11-23T04:37:13.841Z,5.72
2022-11-23T04:39:40.545Z,5.82
2022-11-23T04:42:07.195Z,4.55
2022-11-23T04:44:33.798Z,4.93
2022-11-23T04:47:00.496Z,5.80
2022-11-23T04:49:27.160Z,5.43
2022-11-23T04:51:54.188Z,6.03
2022-11-23T04:54:20.818Z,5.78
2022-11-23T04:56:47.414Z,7.88
2022-11-23T04:59:14.120Z,8.52
2022-11-23T05:01:40.874Z,8.63
2022-11-23T05:04:07.721Z,9.55
2022-11-23T05:06:34.333Z,10.70
2022-11-23T05:09:00.938Z,10.95
2022-11-23T05:11:27.558Z,11.85
2022-11-23T05:13:54.232Z,12.15
2022-11-23T05:16:20.844Z,11.98
2022-11-23T05:18:47.412Z,12.48
2022-11-23T05:21:14.129Z,13.65
2022-11-23T05:23:40.744Z,14.43
2022-11-23T05:26:07.419Z,15.18
2022-11-23T05:28:41.879Z,13.43
2022-11-23T05:31:09.230Z,13.82
2022-11-23T05:33:36.355Z,14.68
2022-11-23T05:36:03.515Z,17.15
2022-11-23T05:38:30.092Z,15.55
2022-11-23T05:40:56.702Z,15.57
2022-11-23T05:43:23.321Z,14.35
2022-11-23T05:45:50.038Z,16.05
2022-11-23T05:48:16.860Z,15.98
2022-11-23T05:50:43.628Z,15.60
2022-11-23T05:53:10.370Z,15.73
2022-11-23T05:55:37.111Z,15.30
2022-11-23T05:58:03.891Z,15.50
2022-11-23T06:00:30.687Z,15.48
2022-11-23T06:03:01.536Z,15.82
2022-11-23T06:05:28.954Z,15.75
2022-11-23T06:07:56.156Z,15.35
2022-11-23T06:10:23.495Z,14.07
2022-11-23T06:12:50.326Z,14.43
2022-11-23T06:15:17.218Z,15.35
2022-11-23T06:17:43.907Z,14.63
2022-11-23T06:20:10.768Z,15.02
2022-11-23T06:22:37.408Z,16.10
2022-11-23T06:25:04.161Z,15.07
2022-11-23T06:27:30.852Z,16.60
2022-11-23T06:29:57.620Z,14.55
2022-11-23T06:32:24.265Z,13.82
2022-11-23T06:34:50.896Z,13.80
2022-11-23T06:37:17.638Z,13.77
2022-11-23T06:39:44.716Z,13.68
2022-11-23T06:44:59.381Z,13.63
2022-11-23T06:47:27.584Z,12.13
2022-11-23T06:49:54.282Z,13.27
2022-11-23T06:52:21.036Z,12.35
2022-11-23T06:54:47.672Z,12.10
2022-11-23T06:57:14.333Z,11.95
2022-11-23T06:59:44.762Z,11.70
2022-11-23T07:02:12.563Z,12.10
2022-11-23T07:04:39.181Z,12.35
2022-11-23T07:07:07.957Z,11.23
2022-11-23T07:09:35.140Z,11.23
2022-11-23T07:12:01.889Z,11.38
2022-11-23T07:14:28.582Z,11.48
2022-11-23T07:16:55.290Z,11.27
2022-11-23T07:19:21.837Z,10.38
2022-11-23T07:21:48.477Z,9.95
2022-11-23T07:24:15.059Z,11.07
2022-11-23T07:26:41.748Z,10.50
2022-11-23T07:29:08.379Z,9.95
2022-11-23T07:31:35.017Z,10.32
2022-11-23T07:34:01.664Z,10.43
2022-11-23T07:36:28.404Z,9.40
2022-11-23T07:38:54.998Z,10.10
2022-11-23T07:41:21.991Z,9.43
2022-11-23T07:43:48.568Z,9.25
2022-11-23T07:46:15.192Z,8.38
2022-11-23T07:48:41.785Z,9.10
2022-11-23T07:51:08.486Z,8.00
2022-11-23T07:53:36.345Z,7.85
2022-11-23T07:56:03.593Z,7.95
2022-11-23T07:58:32.547Z,9.15
2022-11-23T08:00:59.593Z,9.48
2022-11-23T08:03:28.264Z,8.32
2022-11-23T08:05:55.774Z,9.38
2022-11-23T08:08:22.580Z,9.55
2022-11-23T08:10:53.379Z,8.50
2022-11-23T08:13:21.782Z,8.45
2022-11-23T08:15:54.468Z,9.13
2022-11-23T08:18:23.204Z,10.30
2022-11-23T08:20:50.102Z,9.23
2022-11-23T08:23:16.699Z,9.75
2022-11-23T08:25:43.320Z,8.43
2022-11-23T08:28:10.598Z,8.73
2022-11-23T08:30:37.955Z,10.85
2022-11-23T08:33:06.480Z,8.20
2022-11-23T08:35:34.850Z,8.70
2022-11-23T08:38:02.034Z,8.68
2022-11-23T08:40:28.741Z,8.35
2022-11-23T08:42:55.703Z,8.30
2022-11-23T08:45:22.890Z,21.75
2022-11-23T08:47:50.907Z,10.55
2022-11-23T08:50:18.006Z,8.88
2022-11-23T08:52:44.658Z,8.25
2022-11-23T08:55:11.462Z,8.40
2022-11-23T08:57:38.514Z,10.98
2022-11-23T09:00:06.297Z,10.85
2022-11-23T09:02:33.309Z,11.05
2022-11-23T09:05:00.647Z,11.80
2022-11-23T09:07:27.341Z,10.95
2022-11-23T09:09:53.984Z,11.35
2022-11-23T09:12:20.573Z,11.27
2022-11-23T09:14:47.312Z,11.77
2022-11-23T09:17:13.949Z,10.73
2022-11-23T09:19:40.584Z,10.23
2022-11-23T09:22:07.238Z,10.32
2022-11-23T09:24:34.345Z,8.88
2022-11-23T09:27:01.159Z,8.65
2022-11-23T09:29:28.476Z,9.73
2022-11-23T09:31:55.185Z,7.85
2022-11-23T09:34:22.046Z,8.05
2022-11-23T09:36:48.799Z,6.38
2022-11-23T09:39:15.513Z,7.30
2022-11-23T09:42:05.969Z,7.22
2022-11-23T09:45:04.539Z,6.40
2022-11-23T09:47:56.146Z,6.93
2022-11-23T09:50:48.647Z,6.75
2022-11-23T09:53:24.954Z,6.97
2022-11-23T09:55:53.991Z,5.20
2022-11-23T09:58:22.428Z,5.95
2022-11-23T10:00:55.206Z,4.95
2022-11-23T10:03:21.876Z,5.28
2022-11-23T10:06:05.014Z,5.80
2022-11-23T10:09:15.336Z,4.60
2022-11-23T10:12:01.593Z,4.47
2022-11-23T10:14:54.488Z,3.88
2022-11-23T10:17:32.781Z,4.68
2022-11-23T10:20:08.962Z,4.45
2022-11-23T10:22:55.849Z,5.05
2022-11-23T10:25:24.006Z,3.70
2022-11-23T10:27:56.793Z,4.13
2022-11-23T10:30:23.402Z,4.10
2022-11-23T10:33:22.260Z,4.13
2022-11-23T10:35:48.912Z,4.97
2022-11-23T10:38:20.865Z,4.35
2022-11-23T10:41:14.005Z,3.38
2022-11-23T10:44:06.514Z,4.07
2022-11-23T10:46:37.220Z,3.58
2022-11-23T10:49:29.638Z,4.38
2022-11-23T10:52:06.932Z,3.53
2022-11-23T10:54:40.431Z,2.95
2022-11-23T10:57:44.149Z,3.42
2022-11-23T11:00:11.195Z,3.00
2022-11-23T11:02:45.193Z,3.60
2022-11-23T11:05:14.357Z,3.03
2022-11-23T11:07:41.469Z,2.80
2022-11-23T11:10:35.596Z,2.83
2022-11-23T11:13:02.716Z,2.63
2022-11-23T11:15:29.528Z,2.92
2022-11-23T11:17:57.734Z,2.45
2022-11-23T11:20:34.390Z,2.13
2022-11-23T11:23:04.801Z,2.60
2022-11-23T11:25:37.146Z,2.72
2022-11-23T11:28:35.247Z,4.00
2022-11-23T11:31:22.760Z,3.35
2022-11-23T11:34:20.838Z,3.40
2022-11-23T11:36:57.441Z,2.88
2022-11-23T11:39:40.661Z,2.70
2022-11-23T11:42:14.334Z,2.95
2022-11-23T11:44:43.865Z,2.85
2022-11-23T11:47:24.914Z,3.00
2022-11-23T11:49:56.181Z,2.40
2022-11-23T11:52:28.171Z,2.50
2022-11-23T11:55:18.339Z,2.67
2022-11-23T11:57:50.002Z,2.28
2022-11-23T12:00:20.011Z,3.55
2022-11-23T12:03:10.572Z,2.90
2022-11-23T12:05:40.448Z,2.60
2022-11-23T12:08:12.985Z,3.22
2022-11-23T12:10:42.400Z,3.35
2022-11-23T12:13:18.254Z,3.22
2022-11-23T12:15:50.158Z,2.85
2022-11-23T12:18:20.130Z,3.17
2022-11-23T12:20:55.969Z,2.97
2022-11-23T12:23:39.013Z,3.05
2022-11-23T12:26:15.899Z,2.05
2022-11-23T12:29:18.173Z,3.10
2022-11-23T12:31:52.891Z,2.75
2022-11-23T12:34:41.346Z,1.90
2022-11-23T12:37:30.519Z,2.10
2022-11-23T12:40:17.316Z,2.38
2022-11-23T12:42:55.022Z,2.67
2022-11-23T12:45:21.647Z,2.72
2022-11-23T12:48:06.229Z,3.40
2022-11-23T12:50:43.815Z,3.05
2022-11-23T12:53:27.019Z,2.33
2022-11-23T12:56:36.716Z,2.42
2022-11-23T13:01:39.782Z,2.45
2022-11-23T13:04:36.370Z,2.53
2022-11-23T13:07:38.251Z,2.53
2022-11-23T13:10:16.015Z,2.67
2022-11-23T13:12:48.818Z,2.40
2022-11-23T13:15:48.633Z,2.20
2022-11-23T13:18:46.662Z,1.92
2022-11-23T13:21:36.238Z,2.05
2022-11-23T13:24:03.098Z,1.77
2022-11-23T13:26:31.595Z,2.13
2022-11-23T13:28:59.083Z,2.35
2022-11-23T13:31:31.613Z,2.13
2022-11-23T13:34:03.623Z,2.40
2022-11-23T13:36:56.413Z,1.80
2022-11-23T13:40:00.866Z,1.95
2022-11-23T13:42:31.076Z,1.55
2022-11-23T13:45:19.767Z,1.90
2022-11-23T13:48:08.462Z,2.10
2022-11-23T13:50:37.502Z,2.50
2022-11-23T13:53:18.906Z,1.85
2022-11-23T13:55:46.047Z,1.92
2022-11-23T13:58:22.757Z,1.35
2022-11-23T14:00:55.516Z,2.40
2022-11-23T14:03:49.101Z,2.50
2022-11-23T14:06:55.504Z,2.30
2022-11-23T14:09:29.023Z,1.92
2022-11-23T14:12:17.150Z,2.05
2022-11-23T14:14:43.794Z,2.63
2022-11-23T14:17:31.832Z,2.22
2022-11-23T14:20:26.570Z,2.03
2022-11-23T14:23:05.267Z,2.90
2022-11-23T14:25:53.724Z,2.28
2022-11-23T14:28:59.357Z,1.90
2022-11-23T14:32:13.891Z,2.58
2022-11-23T14:35:10.966Z,2.03
2022-11-23T14:37:51.864Z,2.22
2022-11-23T14:40:43.556Z,2.90
2022-11-23T14:43:16.487Z,2.05
2022-11-23T14:45:43.681Z,2.53
2022-11-23T14:48:30.576Z,2.05
2022-11-23T14:51:06.093Z,2.15
2022-11-23T14:53:45.513Z,3.22
2022-11-23T14:56:45.334Z,3.65
2022-11-23T14:59:22.958Z,2.10
2022-11-23T15:02:02.275Z,4.13
2022-11-23T15:04:36.835Z,3.17
2022-11-23T15:07:12.365Z,2.20
2022-11-23T15:09:51.559Z,2.63
2022-11-23T15:12:28.264Z,2.45
2022-11-23T15:14:59.562Z,2.20
2022-11-23T15:17:27.068Z,2.17
2022-11-23T15:20:01.128Z,2.15
2022-11-23T15:22:29.111Z,2.03
2022-11-23T15:25:06.945Z,3.03
2022-11-23T15:27:34.010Z,2.78
2022-11-23T15:30:00.772Z,2.42
2022-11-23T15:32:34.656Z,2.22
2022-11-23T15:35:08.239Z,2.67
2022-11-23T15:37:48.681Z,2.55
2022-11-23T15:40:16.686Z,2.42
2022-11-23T15:42:46.754Z,6.60
2022-11-23T15:45:41.489Z,3.03
2022-11-23T15:48:36.996Z,3.25
2022-11-23T15:51:06.252Z,3.33
2022-11-23T15:53:46.360Z,2.50
2022-11-23T15:56:26.971Z,2.33
2022-11-23T15:58:54.434Z,2.15
2022-11-23T16:01:22.043Z,2.25
2022-11-23T16:04:00.954Z,1.95
2022-11-23T16:06:39.147Z,2.03
2022-11-23T16:12:20.843Z,2.53
2022-11-23T16:14:47.610Z,2.28
2022-11-23T16:17:19.118Z,2.78
2022-11-23T16:19:56.350Z,2.33
2022-11-23T16:22:29.029Z,2.72
2022-11-23T16:25:08.855Z,2.13
2022-11-23T16:27:36.936Z,2.38
2022-11-23T16:30:04.692Z,2.38
2022-11-23T16:32:32.235Z,2.47
2022-11-23T16:35:16.839Z,4.55
2022-11-23T16:37:43.866Z,2.00
2022-11-23T16:40:11.125Z,2.30
2022-11-23T16:42:37.923Z,2.30
2022-11-23T16:45:04.987Z,2.95
2022-11-23T16:47:31.840Z,2.53
2022-11-23T16:49:58.600Z,2.78
2022-11-23T16:52:25.453Z,2.92
2022-11-23T16:54:55.251Z,2.03
2022-11-23T16:57:30.008Z,2.20
2022-11-23T16:59:58.358Z,2.70
2022-11-23T17:02:25.245Z,2.33
2022-11-23T17:04:52.027Z,2.90
2022-11-23T17:07:18.860Z,2.35
2022-11-23T17:09:45.530Z,3.17
2022-11-23T17:12:18.385Z,4.03
2022-11-23T17:14:48.412Z,3.95
2022-11-23T17:17:19.465Z,4.22
2022-11-23T17:19:48.579Z,3.53
2022-11-23T17:22:22.060Z,3.38
2022-11-23T17:24:50.231Z,5.65
2022-11-23T17:27:25.268Z,3.17
2022-11-23T17:29:57.562Z,3.20
2022-11-23T17:32:24.323Z,5.00
2022-11-23T17:34:50.895Z,3.60
2022-11-23T17:37:21.079Z,3.00
2022-11-23T17:39:48.684Z,2.88
2022-11-23T17:42:15.683Z,2.80
2022-11-23T17:44:42.707Z,2.85
2022-11-23T17:47:30.028Z,3.28
2022-11-23T17:49:57.851Z,3.38
2022-11-23T17:52:25.127Z,3.30
2022-11-23T17:54:52.117Z,3.78
2022-11-23T17:57:22.833Z,3.28
2022-11-23T17:59:50.173Z,3.25
2022-11-23T18:02:16.829Z,3.80
2022-11-23T18:04:43.549Z,3.85
2022-11-23T18:07:13.030Z,4.00
2022-11-23T18:09:40.064Z,4.00
2022-11-23T18:12:09.190Z,3.28
2022-11-23T18:14:36.289Z,3.58
2022-11-23T18:17:02.992Z,3.38
2022-11-23T18:19:29.802Z,3.90
2022-11-23T18:21:57.213Z,3.83
2022-11-23T18:24:24.055Z,2.58
2022-11-23T18:26:50.679Z,2.75
2022-11-23T18:29:17.626Z,2.65
2022-11-23T18:31:44.421Z,2.67
2022-11-23T18:34:11.300Z,2.90
2022-11-23T18:36:37.875Z,2.53
2022-11-23T18:39:04.545Z,3.22
2022-11-23T18:41:31.208Z,2.88
2022-11-23T18:43:57.873Z,3.33
2022-11-23T18:46:24.748Z,4.38
2022-11-23T18:48:51.529Z,4.35
2022-11-23T18:51:18.724Z,3.05
2022-11-23T18:53:47.604Z,3.85
2022-11-23T18:56:14.516Z,4.38
2022-11-23T18:58:42.969Z,3.35
2022-11-23T19:01:12.722Z,3.03
2022-11-23T19:03:41.239Z,3.13
2022-11-23T19:06:09.166Z,3.08
2022-11-23T19:08:40.511Z,3.08
2022-11-23T19:11:19.517Z,6.05
2022-11-23T19:13:49.354Z,4.45
2022-11-23T19:18:45.168Z,2.58
2022-11-23T19:21:19.866Z,3.35
2022-11-23T19:23:51.476Z,3.50
2022-11-23T19:26:18.849Z,3.35
2022-11-23T19:28:45.935Z,3.90
2022-11-23T19:31:20.360Z,3.22
2022-11-23T19:33:48.338Z,3.13
2022-11-23T19:36:18.068Z,3.78
2022-11-23T19:41:12.069Z,2.65
2022-11-23T19:43:38.889Z,2.70
2022-11-23T19:46:09.027Z,3.00
2022-11-23T19:48:35.799Z,3.83
2022-11-23T19:51:06.010Z,3.83
2022-11-23T19:53:34.996Z,3.60
2022-11-23T19:56:23.899Z,3.97
2022-11-23T19:58:52.348Z,3.42
2022-11-23T20:01:21.141Z,3.63
2022-11-23T20:03:50.692Z,4.03
2022-11-23T20:06:25.258Z,4.35
2022-11-23T20:08:56.836Z,4.00
2022-11-23T20:11:24.324Z,4.60
2022-11-23T20:13:51.320Z,4.88
2022-11-23T20:16:19.592Z,5.05
2022-11-23T20:18:49.005Z,4.97
2022-11-23T20:21:17.903Z,5.38
2022-11-23T20:23:46.330Z,4.30
2022-11-23T20:26:15.541Z,4.55
2022-11-23T20:28:43.030Z,5.70
2022-11-23T20:31:20.581Z,4.65
2022-11-23T20:33:50.506Z,6.68
2022-11-23T20:38:45.957Z,5.45
2022-11-23T20:41:17.168Z,4.93
2022-11-23T20:43:44.848Z,5.07
2022-11-23T20:46:12.784Z,4.60
2022-11-23T20:48:40.632Z,5.82
2022-11-23T20:51:10.669Z,5.15
2022-11-23T20:53:37.545Z,5.65
2022-11-23T20:56:09.698Z,5.63
2022-11-23T20:58:37.306Z,5.68
2022-11-23T21:01:15.291Z,6.05
2022-11-23T21:03:43.271Z,6.03
2022-11-23T21:06:12.197Z,6.10
2022-11-23T21:08:42.887Z,6.30
2022-11-23T21:11:35.417Z,6.00
2022-11-23T21:14:06.201Z,6.88
2022-11-23T21:16:35.077Z,6.72
2022-11-23T21:19:03.146Z,6.50
2022-11-23T21:21:30.108Z,8.05
2022-11-23T21:23:56.772Z,7.68
2022-11-23T21:26:23.594Z,8.48
2022-11-23T21:28:50.412Z,8.88
2022-11-23T21:31:17.195Z,9.60
2022-11-23T21:33:44.334Z,10.15
2022-11-23T21:36:14.259Z,9.05
2022-11-23T21:38:41.893Z,10.38
2022-11-23T21:41:18.090Z,9.75
2022-11-23T21:43:51.458Z,9.98
2022-11-23T21:46:18.636Z,11.68
2022-11-23T21:48:45.308Z,11.85
2022-11-23T21:51:14.419Z,12.27
2022-11-23T21:53:44.754Z,12.77
2022-11-23T21:56:13.195Z,13.45
2022-11-23T21:58:41.145Z,12.35
2022-11-23T22:01:16.620Z,15.02
2022-11-23T22:03:45.780Z,15.00
2022-11-23T22:06:18.858Z,14.88
2022-11-23T22:08:52.846Z,17.55
2022-11-23T22:11:29.732Z,16.98
2022-11-23T22:13:58.497Z,19.90
2022-11-23T22:16:27.470Z,21.00
2022-11-23T22:18:56.019Z,18.40
2022-11-23T22:21:24.859Z,18.92
2022-11-23T22:23:51.759Z,18.85
2022-11-23T22:26:19.741Z,19.75
2022-11-23T22:28:49.087Z,20.35
2022-11-23T22:31:18.826Z,21.90
2022-11-23T22:36:14.871Z,20.05
2022-11-23T22:38:41.680Z,21.42
2022-11-23T22:41:11.347Z,21.63
2022-11-23T22:46:07.494Z,20.27
2022-11-23T22:48:42.051Z,21.75
2022-11-23T22:51:12.171Z,20.10
2022-11-23T22:53:44.593Z,20.35
2022-11-23T22:56:16.760Z,20.23
2022-11-23T22:58:44.547Z,19.60
2022-11-23T23:01:14.023Z,21.20
2022-11-23T23:03:41.029Z,20.38
2022-11-23T23:06:14.332Z,19.17
2022-11-23T23:08:40.961Z,20.25
2022-11-23T23:11:07.801Z,19.52
2022-11-23T23:13:34.758Z,20.83
2022-11-23T23:16:03.450Z,20.20
2022-11-23T23:18:31.866Z,18.20
2022-11-23T23:21:14.283Z,20.25
2022-11-23T23:23:44.259Z,21.35
2022-11-23T23:26:12.718Z,21.73
2022-11-23T23:28:40.071Z,23.75
2022-11-23T23:31:09.206Z,21.30
2022-11-23T23:33:35.908Z,22.75
2022-11-23T23:36:06.395Z,22.25
2022-11-23T23:38:33.498Z,24.25
2022-11-23T23:41:00.483Z,21.98
2022-11-23T23:43:28.611Z,22.25
2022-11-23T23:45:59.298Z,22.75
2022-11-23T23:48:29.147Z,22.50
2022-11-23T23:50:55.928Z,23.77
2022-11-23T23:53:22.634Z,24.13
2022-11-23T23:55:59.117Z,22.95
2022-11-23T23:58:26.042Z,22.33
